Time;durP1;ratioP1;P1;durP2;ratioP2;P2;SDS_P1;SDS_P2;PMS_P1;PMS_P2;Temp;Humidity;BMP_temperature;BMP_pressure;BME280_temperature;BME280_humidity;BME280_pressure;Samples;Min_cycle;Max_cycle;Signal;HPM_P1;HPM_P2
2022/11/23 00:01:28;;;;;;;15.73;9.00;;;;;;;9.64;100.00;99413.75;2615803;36;20642;-58
2022/11/23 00:03:59;;;;;;;19.90;9.90;;;;;;;9.71;100.00;99424.69;2615843;36;20023;-51
2022/11/23 00:06:28;;;;;;;19.20;9.60;;;;;;;9.51;100.00;99419.63;2614379;36;20039;-55
2022/11/23 00:08:57;;;;;;;17.73;10.20;;;;;;;9.64;100.00;99428.06;2615706;36;20032;-53
2022/11/23 00:11:27;;;;;;;20.33;10.77;;;;;;;9.68;100.00;99425.84;2608081;36;20046;-56
2022/11/23 00:13:56;;;;;;;18.13;10.70;;;;;;;9.62;100.00;99429.22;2609317;36;20038;-55
2022/11/23 00:16:30;;;;;;;24.52;11.13;;;;;;;9.81;100.00;99422.69;2615459;36;20049;-55
2022/11/23 00:19:00;;;;;;;19.20;10.60;;;;;;;9.77;100.00;99430.22;2615608;36;20045;-52
2022/11/23 00:21:30;;;;;;;17.95;10.18;;;;;;;9.74;100.00;99433.25;2615377;36;20030;-52
2022/11/23 00:23:59;;;;;;;19.70;10.10;;;;;;;9.80;100.00;99435.28;2615740;36;21061;-51
2022/11/23 00:26:27;;;;;;;19.73;11.10;;;;;;;9.85;100.00;99432.09;2615063;31;20065;-52
2022/11/23 00:28:55;;;;;;;20.27;10.63;;;;;;;9.84;100.00;99440.34;2615323;36;20038;-55
2022/11/23 00:31:28;;;;;;;19.03;10.43;;;;;;;9.94;100.00;99441.84;2611924;36;20038;-58
2022/11/23 00:33:58;;;;;;;17.02;10.57;;;;;;;9.77;100.00;99437.47;2612620;31;20299;-56
2022/11/23 00:36:28;;;;;;;25.02;11.65;;;;;;;9.77;100.00;99446.34;2610392;36;20046;-55
2022/11/23 00:38:57;;;;;;;26.17;11.88;;;;;;;9.93;100.00;99439.31;2611432;36;20057;-55
2022/11/23 00:41:27;;;;;;;20.73;11.35;;;;;;;9.95;100.00;99437.31;2610277;36;20038;-54
2022/11/23 00:43:56;;;;;;;18.73;11.15;;;;;;;10.03;100.00;99434.63;2611712;36;20065;-51
2022/11/23 00:46:28;;;;;;;27.65;12.88;;;;;;;9.79;100.00;99438.97;2611568;36;20046;-51
2022/11/23 00:48:59;;;;;;;17.33;11.73;;;;;;;9.85;100.00;99442.84;2610875;36;20035;-55
2022/11/23 00:51:30;;;;;;;20.60;11.48;;;;;;;9.91;100.00;99441.31;2611472;36;20042;-59
2022/11/23 00:53:58;;;;;;;23.70;12.32;;;;;;;9.84;100.00;99454.59;2611458;36;20045;-54
2022/11/23 00:56:27;;;;;;;22.02;12.18;;;;;;;9.86;100.00;99454.44;2611696;36;20061;-55
2022/11/23 00:59:00;;;;;;;26.73;12.70;;;;;;;9.87;100.00;99453.44;2615767;36;20033;-56
2022/11/23 01:01:35;;;;;;;24.30;12.02;;;;;;;9.80;100.00;99448.72;2610751;36;20042;-56
2022/11/23 01:04:05;;;;;;;26.73;13.98;;;;;;;9.97;100.00;99451.44;2610466;36;20586;-57
2022/11/23 01:06:36;;;;;;;26.65;12.95;;;;;;;10.03;100.00;99466.06;2632271;36;20452;-55
2022/11/23 01:09:07;;;;;;;27.35;14.27;;;;;;;9.88;100.00;99457.78;2610702;36;20444;-57
2022/11/23 01:11:36;;;;;;;27.17;13.65;;;;;;;9.92;100.00;99459.13;2610766;36;20038;-54
2022/11/23 01:14:04;;;;;;;35.63;14.40;;;;;;;9.69;100.00;99465.16;2604628;36;20034;-53
2022/11/23 01:16:38;;;;;;;33.17;15.15;;;;;;;9.84;100.00;99469.91;2604952;36;20455;-52
2022/11/23 01:19:08;;;;;;;31.15;15.38;;;;;;;9.75;100.00;99467.19;2615285;31;20038;-56
2022/11/23 01:21:37;;;;;;;31.27;15.15;;;;;;;9.77;100.00;99475.91;2611832;36;20034;-56
2022/11/23 01:24:07;;;;;;;29.27;14.70;;;;;;;9.78;100.00;99480.28;2611603;36;21136;-56
2022/11/23 01:26:36;;;;;;;31.00;16.10;;;;;;;9.74;100.00;99476.25;2611992;36;20038;-56
2022/11/23 01:29:05;;;;;;;27.38;15.63;;;;;;;9.63;100.00;99492.69;2611066;36;20061;-54
2022/11/23 01:31:36;;;;;;;29.08;15.02;;;;;;;9.89;100.00;99486.34;2612620;36;20038;-56
2022/11/23 01:34:08;;;;;;;31.70;15.07;;;;;;;9.86;100.00;99489.38;2611897;36;20023;-56
2022/11/23 01:36:36;;;;;;;31.83;16.00;;;;;;;9.82;100.00;99489.69;2610567;36;20038;-55
2022/11/23 01:39:06;;;;;;;31.70;14.55;;;;;;;9.91;100.00;99492.38;2611853;31;20443;-55
2022/11/23 01:41:39;;;;;;;35.53;16.75;;;;;;;9.97;100.00;99495.25;2611176;36;20043;-53
2022/11/23 01:44:24;;;;;;;36.50;17.25;;;;;;;9.91;100.00;99484.31;2611362;36;20035;-52
2022/11/23 01:46:56;;;;;;;35.58;16.02;;;;;;;9.83;100.00;99487.84;2610104;36;20268;-56
2022/11/23 01:49:25;;;;;;;27.27;15.48;;;;;;;10.10;100.00;99497.47;2615539;36;20573;-55
2022/11/23 01:51:59;;;;;;;30.92;16.05;;;;;;;9.97;100.00;99489.88;2612137;36;20451;-54
2022/11/23 01:54:32;;;;;;;33.33;16.42;;;;;;;10.16;100.00;99509.41;2613341;36;20562;-55
2022/11/23 01:57:04;;;;;;;35.55;17.55;;;;;;;10.02;100.00;99499.31;2614117;36;20443;-56
2022/11/23 01:59:35;;;;;;;33.88;17.13;;;;;;;9.94;100.00;99500.16;2615114;36;20049;-53
2022/11/23 02:02:06;;;;;;;39.53;17.65;;;;;;;9.97;100.00;99502.50;2614480;36;20039;-53
2022/11/23 02:04:39;;;;;;;41.35;17.85;;;;;;;9.88;100.00;99498.09;2615212;36;20447;-53
2022/11/23 02:07:07;;;;;;;37.30;16.50;;;;;;;10.08;100.00;99499.47;2615449;36;20041;-56
2022/11/23 02:09:37;;;;;;;32.60;16.55;;;;;;;10.09;100.00;99503.84;2614428;36;20065;-53
2022/11/23 02:12:08;;;;;;;31.13;16.17;;;;;;;10.24;100.00;99506.72;2615406;36;20389;-56
2022/11/23 02:14:37;;;;;;;29.83;15.98;;;;;;;10.11;100.00;99507.19;2615357;31;20039;-53
2022/11/23 02:17:08;;;;;;;27.63;14.88;;;;;;;9.99;100.00;99511.22;2608491;36;20408;-55
2022/11/23 02:19:46;;;;;;;37.55;17.38;;;;;;;9.95;100.00;99508.03;2615053;36;20060;-56
2022/11/23 02:22:21;;;;;;;33.80;16.88;;;;;;;9.97;100.00;99516.78;2607520;36;20038;-53
2022/11/23 02:24:54;;;;;;;28.45;14.70;;;;;;;9.92;100.00;99513.75;2614606;36;20038;-54
2022/11/23 02:27:26;;;;;;;30.52;15.93;;;;;;;10.05;100.00;99513.25;2613814;36;20031;-57
2022/11/23 02:29:56;;;;;;;33.03;16.92;;;;;;;9.71;100.00;99519.56;2612573;36;20034;-53
2022/11/23 02:32:26;;;;;;;39.47;16.23;;;;;;;9.92;100.00;99520.94;2631642;36;20031;-53
2022/11/23 02:34:54;;;;;;;31.23;16.58;;;;;;;9.84;100.00;99516.41;2610729;36;20057;-57
2022/11/23 02:37:23;;;;;;;34.60;16.88;;;;;;;9.94;100.00;99516.28;2614679;36;20042;-52
2022/11/23 02:39:53;;;;;;;32.42;16.02;;;;;;;9.81;100.00;99522.13;2611721;36;20575;-58
2022/11/23 02:42:25;;;;;;;31.88;16.52;;;;;;;9.90;100.00;99520.28;2611166;36;20031;-56
2022/11/23 02:45:02;;;;;;;36.25;15.57;;;;;;;9.96;100.00;99508.88;2612790;36;20030;-55
2022/11/23 02:47:30;;;;;;;38.17;16.63;;;;;;;9.84;100.00;99513.72;2613093;31;20023;-54
2022/11/23 02:50:01;;;;;;;34.20;16.17;;;;;;;9.85;100.00;99519.94;2613034;36;20443;-55
2022/11/23 02:52:29;;;;;;;36.50;16.50;;;;;;;9.95;100.00;99529.53;2614117;36;20035;-56
2022/11/23 02:54:57;;;;;;;39.15;18.25;;;;;;;9.96;100.00;99522.31;2615610;36;20031;-52
2022/11/23 02:57:29;;;;;;;35.93;15.63;;;;;;;9.81;100.00;99522.94;2615351;36;20030;-51
2022/11/23 02:59:57;;;;;;;32.90;15.30;;;;;;;10.04;100.00;99522.34;2615963;36;20046;-53
2022/11/23 03:02:25;;;;;;;30.70;16.20;;;;;;;9.86;100.00;99535.88;2612533;31;20041;-53
2022/11/23 03:04:53;;;;;;;27.92;15.30;;;;;;;9.82;100.00;99531.88;2614026;31;20042;-55
2022/11/23 03:07:22;;;;;;;34.65;16.95;;;;;;;10.04;100.00;99522.34;2617058;36;20423;-53
2022/11/23 03:09:50;;;;;;;27.42;15.18;;;;;;;9.81;100.00;99533.69;2616329;36;20038;-51
2022/11/23 03:12:18;;;;;;;35.28;16.77;;;;;;;9.79;100.00;99532.16;2614847;31;20043;-55
2022/11/23 03:14:49;;;;;;;29.50;15.02;;;;;;;9.79;100.00;99532.16;2613244;36;20439;-56
2022/11/23 03:17:17;;;;;;;27.83;14.85;;;;;;;9.89;100.00;99532.88;2614952;36;20049;-54
2022/11/23 03:19:46;;;;;;;32.47;15.27;;;;;;;9.91;100.00;99528.19;2613091;36;20034;-55
2022/11/23 03:22:14;;;;;;;33.47;14.25;;;;;;;9.93;100.00;99533.41;2607356;36;20030;-54
2022/11/23 03:24:43;;;;;;;25.70;13.00;;;;;;;9.89;100.00;99529.34;2612186;36;20030;-51
2022/11/23 03:27:11;;;;;;;25.63;14.23;;;;;;;9.79;100.00;99543.78;2611632;36;20038;-57
2022/11/23 03:29:39;;;;;;;29.58;13.38;;;;;;;9.80;100.00;99531.16;2607493;36;20045;-55
2022/11/23 03:32:10;;;;;;;25.48;11.27;;;;;;;9.63;100.00;99541.88;2612176;31;20053;-54
2022/11/23 03:34:39;;;;;;;24.58;12.15;;;;;;;9.74;100.00;99538.03;2614796;36;20038;-54
2022/11/23 03:37:07;;;;;;;27.10;11.32;;;;;;;9.79;100.00;99541.09;2612989;36;20031;-54
2022/11/23 03:39:35;;;;;;;22.97;12.33;;;;;;;9.69;100.00;99540.38;2614988;36;20031;-53
2022/11/23 03:42:04;;;;;;;23.60;10.95;;;;;;;9.67;100.00;99541.53;2612263;36;20035;-56
2022/11/23 03:44:32;;;;;;;25.13;11.95;;;;;;;9.72;100.00;99544.59;2612577;36;20057;-55
2022/11/23 03:47:00;;;;;;;31.13;11.80;;;;;;;9.63;100.00;99535.66;2614667;31;20041;-55
2022/11/23 03:49:31;;;;;;;25.65;11.65;;;;;;;9.62;100.00;99540.19;2614101;36;20035;-54
2022/11/23 03:52:00;;;;;;;28.25;12.18;;;;;;;9.50;100.00;99546.03;2614194;31;20034;-53
2022/11/23 03:54:28;;;;;;;24.77;10.98;;;;;;;9.57;100.00;99541.66;2611625;36;20071;-54
2022/11/23 03:56:56;;;;;;;24.48;11.43;;;;;;;9.59;100.00;99547.75;2613341;36;20022;-55
2022/11/23 03:59:24;;;;;;;27.33;12.45;;;;;;;9.52;100.00;99554.75;2614025;36;20042;-54
2022/11/23 04:01:53;;;;;;;25.20;11.15;;;;;;;9.53;100.00;99551.91;2615668;36;20031;-54
2022/11/23 04:04:21;;;;;;;21.10;10.82;;;;;;;9.69;100.00;99551.13;2614747;36;20045;-56
2022/11/23 04:06:52;;;;;;;17.33;9.57;;;;;;;9.60;100.00;99544.06;2616630;31;20551;-57
2022/11/23 04:09:20;;;;;;;21.50;10.30;;;;;;;9.60;100.00;99538.69;2615861;36;20029;-51
2022/11/23 04:11:49;;;;;;;20.83;9.90;;;;;;;9.61;100.00;99543.03;2614561;36;20034;-56
2022/11/23 04:14:18;;;;;;;21.50;9.40;;;;;;;9.51;100.00;99547.69;2614859;36;20030;-55
2022/11/23 04:16:46;;;;;;;23.77;9.57;;;;;;;9.43;100.00;99537.75;2615978;36;20041;-52
2022/11/23 04:19:15;;;;;;;22.38;9.52;;;;;;;9.34;100.00;99544.09;2615539;36;20035;-55
2022/11/23 04:21:43;;;;;;;17.27;8.65;;;;;;;9.39;100.00;99541.78;2615660;31;20041;-52
2022/11/23 04:24:14;;;;;;;16.02;8.38;;;;;;;9.17;100.00;99543.16;2614852;36;20034;-55
2022/11/23 04:26:42;;;;;;;18.70;8.43;;;;;;;9.22;100.00;99539.00;2613734;36;20846;-57
2022/11/23 04:29:11;;;;;;;21.63;8.25;;;;;;;9.25;100.00;99540.53;2610202;36;20041;-56
2022/11/23 04:31:40;;;;;;;18.20;8.40;;;;;;;9.20;100.00;99537.47;2606147;36;20054;-58
2022/11/23 04:34:08;;;;;;;16.90;8.75;;;;;;;9.21;100.00;99544.53;2612321;36;20039;-53
2022/11/23 04:36:36;;;;;;;16.98;7.60;;;;;;;9.14;100.00;99540.81;2615003;31;20060;-54
2022/11/23 04:39:06;;;;;;;18.07;8.13;;;;;;;9.23;100.00;99537.16;2612295;36;20045;-51
2022/11/23 04:41:37;;;;;;;21.52;8.77;;;;;;;9.21;100.00;99536.50;2611645;36;20299;-53
2022/11/23 04:44:06;;;;;;;20.75;7.82;;;;;;;9.18;100.00;99537.63;2612681;36;20039;-56
2022/11/23 04:46:34;;;;;;;20.85;8.00;;;;;;;9.20;100.00;99535.66;2613472;31;20023;-54
2022/11/23 04:49:02;;;;;;;17.47;7.43;;;;;;;9.21;100.00;99537.31;2611385;36;20049;-54
2022/11/23 04:51:31;;;;;;;17.13;7.60;;;;;;;9.10;100.00;99546.50;2615915;36;20941;-53
2022/11/23 04:53:59;;;;;;;15.73;7.25;;;;;;;9.08;100.00;99540.47;2614386;36;20428;-55
2022/11/23 04:56:27;;;;;;;14.15;6.70;;;;;;;9.16;100.00;99550.38;2612452;36;20030;-57
2022/11/23 04:58:58;;;;;;;17.10;6.47;;;;;;;9.12;100.00;99547.16;2614764;31;20040;-56
2022/11/23 05:01:27;;;;;;;13.68;7.15;;;;;;;9.19;100.00;99539.34;2612568;36;20042;-56
2022/11/23 05:03:55;;;;;;;16.27;7.37;;;;;;;9.34;100.00;99541.44;2614224;31;20037;-50
2022/11/23 05:06:23;;;;;;;12.68;6.25;;;;;;;9.34;100.00;99536.88;2612245;36;20038;-55
2022/11/23 05:08:52;;;;;;;12.15;6.40;;;;;;;9.36;100.00;99544.78;2614489;36;20038;-57
2022/11/23 05:11:22;;;;;;;14.48;7.07;;;;;;;9.31;100.00;99547.94;2612587;31;20042;-57
2022/11/23 05:13:50;;;;;;;13.98;7.28;;;;;;;9.29;100.00;99547.28;2614617;31;20042;-57
2022/11/23 05:16:21;;;;;;;13.03;7.23;;;;;;;9.29;100.00;99533.84;2611790;36;20030;-56
2022/11/23 05:18:49;;;;;;;15.30;8.07;;;;;;;9.37;100.00;99535.72;2612307;36;20299;-52
2022/11/23 05:21:18;;;;;;;13.18;6.47;;;;;;;9.51;100.00;99534.25;2613495;36;20043;-52
2022/11/23 05:23:46;;;;;;;11.27;6.20;;;;;;;9.40;100.00;99530.03;2610729;31;20037;-53
2022/11/23 05:26:14;;;;;;;13.63;7.03;;;;;;;9.35;100.00;99535.03;2614032;31;20034;-58
2022/11/23 05:28:43;;;;;;;15.27;6.75;;;;;;;9.53;100.00;99530.41;2611722;36;20030;-54
2022/11/23 05:31:11;;;;;;;12.25;6.25;;;;;;;9.51;100.00;99534.25;2605273;36;20042;-52
2022/11/23 05:33:42;;;;;;;13.95;6.10;;;;;;;9.65;100.00;99533.66;2605619;36;21562;-57
2022/11/23 05:36:12;;;;;;;18.60;6.72;;;;;;;9.70;100.00;99538.53;2613038;36;20022;-55
2022/11/23 05:38:41;;;;;;;12.90;6.82;;;;;;;9.60;100.00;99530.63;2611948;36;20173;-56
2022/11/23 05:41:09;;;;;;;14.30;6.50;;;;;;;9.46;100.00;99535.59;2611537;36;20035;-59
2022/11/23 05:43:37;;;;;;;12.45;5.88;;;;;;;9.52;100.00;99531.41;2614014;36;20026;-50
2022/11/23 05:46:06;;;;;;;15.23;6.70;;;;;;;9.19;100.00;99538.50;2613768;36;20730;-52
2022/11/23 05:48:34;;;;;;;14.75;5.78;;;;;;;9.15;100.00;99545.19;2612987;36;20062;-56
2022/11/23 05:51:05;;;;;;;15.45;7.07;;;;;;;9.07;100.00;99552.19;2611561;36;20037;-59
2022/11/23 05:53:33;;;;;;;16.45;6.38;;;;;;;9.07;100.00;99560.25;2613128;31;20037;-52
2022/11/23 05:56:02;;;;;;;16.77;6.20;;;;;;;9.14;100.00;99557.75;2610393;36;20030;-55
2022/11/23 05:58:30;;;;;;;16.92;6.85;;;;;;;9.03;100.00;99556.19;2614621;36;20041;-54
2022/11/23 06:01:01;;;;;;;20.85;6.78;;;;;;;9.11;100.00;99556.25;2612978;36;20037;-57
2022/11/23 06:03:29;;;;;;;15.82;6.20;;;;;;;9.14;100.00;99554.22;2614352;36;20049;-53
2022/11/23 06:05:58;;;;;;;14.07;6.40;;;;;;;9.25;100.00;99553.97;2614471;36;20034;-54
2022/11/23 06:08:28;;;;;;;13.18;5.70;;;;;;;9.22;100.00;99559.66;2614729;36;20704;-55
2022/11/23 06:10:57;;;;;;;11.27;5.65;;;;;;;9.24;100.00;99563.00;2612796;36;20035;-54
2022/11/23 06:13:25;;;;;;;14.70;6.50;;;;;;;9.16;100.00;99563.81;2614090;36;20300;-54
2022/11/23 06:15:53;;;;;;;11.55;6.22;;;;;;;9.26;100.00;99555.63;2614167;36;20031;-53
2022/11/23 06:18:22;;;;;;;12.88;5.90;;;;;;;9.23;100.00;99551.44;2615407;36;20041;-57
2022/11/23 06:20:50;;;;;;;16.67;6.38;;;;;;;9.21;100.00;99558.78;2615511;31;20042;-56
2022/11/23 06:23:18;;;;;;;12.90;6.37;;;;;;;9.24;100.00;99563.84;2615352;36;20030;-54
2022/11/23 06:25:49;;;;;;;11.60;6.07;;;;;;;9.18;100.00;99567.16;2612140;36;20310;-54
2022/11/23 06:28:18;;;;;;;15.32;5.63;;;;;;;9.21;100.00;99566.00;2612635;36;20038;-52
2022/11/23 06:30:46;;;;;;;15.48;5.30;;;;;;;9.32;100.00;99565.75;2612791;36;21050;-51
2022/11/23 06:33:14;;;;;;;13.32;5.78;;;;;;;9.28;100.00;99564.38;2609841;36;21619;-55
2022/11/23 06:35:43;;;;;;;15.30;6.05;;;;;;;9.30;100.00;99559.69;2598797;36;20030;-52
2022/11/23 06:38:11;;;;;;;14.60;5.43;;;;;;;9.32;100.00;99563.06;2612531;36;20041;-55
2022/11/23 06:40:39;;;;;;;16.85;6.18;;;;;;;9.30;100.00;99557.00;2612679;36;20041;-55
2022/11/23 06:43:10;;;;;;;10.85;4.93;;;;;;;9.36;100.00;99561.72;2614693;31;20034;-57
2022/11/23 06:45:41;;;;;;;12.00;5.00;;;;;;;9.32;100.00;99560.38;2615742;36;20038;-54
2022/11/23 06:48:10;;;;;;;10.27;5.25;;;;;;;9.38;100.00;99562.41;2612603;36;20034;-53
2022/11/23 06:50:38;;;;;;;19.20;6.45;;;;;;;9.25;100.00;99564.69;2611613;36;20042;-56
2022/11/23 06:53:06;;;;;;;12.68;5.45;;;;;;;9.27;100.00;99562.69;2615071;36;20050;-54
2022/11/23 06:55:35;;;;;;;16.65;5.97;;;;;;;9.31;100.00;99565.91;2614627;36;20041;-59
2022/11/23 06:58:03;;;;;;;15.90;5.63;;;;;;;9.37;100.00;99568.78;2613136;31;20038;-56
2022/11/23 07:00:34;;;;;;;9.60;5.37;;;;;;;9.28;100.00;99575.13;2611481;36;20042;-53
2022/11/23 07:03:03;;;;;;;11.48;5.45;;;;;;;9.23;100.00;99580.09;2611853;36;20034;-54
2022/11/23 07:05:31;;;;;;;13.10;5.20;;;;;;;9.04;100.00;99586.53;2611022;36;20061;-54
2022/11/23 07:07:59;;;;;;;14.00;5.10;;;;;;;9.27;100.00;99581.47;2611095;36;20034;-53
2022/11/23 07:10:28;;;;;;;12.90;5.82;;;;;;;9.12;100.00;99582.06;2611487;36;20022;-55
2022/11/23 07:12:56;;;;;;;11.77;5.18;;;;;;;9.00;100.00;99588.69;2612252;36;20030;-52
2022/11/23 07:15:24;;;;;;;13.38;5.88;;;;;;;9.12;100.00;99586.59;2615067;36;20423;-55
2022/11/23 07:17:55;;;;;;;15.55;4.78;;;;;;;9.17;100.00;99594.19;2612207;36;20563;-57
2022/11/23 07:20:24;;;;;;;12.55;4.97;;;;;;;8.94;100.00;99586.66;2611912;36;20045;-56
2022/11/23 07:23:02;;;;;;;15.55;5.57;;;;;;;9.05;100.00;99596.28;2614025;36;20030;-52
2022/11/23 07:25:30;;;;;;;9.10;5.05;;;;;;;9.16;100.00;99595.16;2611893;36;20555;-58
2022/11/23 07:27:59;;;;;;;12.43;5.18;;;;;;;9.27;100.00;99594.91;2614214;31;20560;-52
2022/11/23 07:30:32;;;;;;;12.05;5.13;;;;;;;9.22;100.00;99603.44;2612908;36;20031;-53
2022/11/23 07:33:05;;;;;;;10.18;4.88;;;;;;;9.10;100.00;99605.53;2613735;36;20034;-54
2022/11/23 07:35:34;;;;;;;15.32;4.85;;;;;;;9.01;100.00;99609.19;2611598;36;20065;-55
2022/11/23 07:38:03;;;;;;;13.38;4.43;;;;;;;8.85;100.00;99614.41;2612897;36;20050;-51
2022/11/23 07:40:31;;;;;;;9.05;4.28;;;;;;;9.09;100.00;99619.13;2614884;36;20034;-56
2022/11/23 07:43:04;;;;;;;10.45;3.97;;;;;;;9.04;100.00;99627.66;2614156;36;20050;-58
2022/11/23 07:45:32;;;;;;;10.10;4.03;;;;;;;9.00;100.00;99630.81;2616560;31;20057;-52
2022/11/23 07:48:06;;;;;;;11.20;4.30;;;;;;;8.94;100.00;99616.16;2609942;36;20139;-56
2022/11/23 07:50:35;;;;;;;10.20;3.65;;;;;;;9.07;100.00;99631.88;2615899;36;20034;-52
2022/11/23 07:53:04;;;;;;;;;;;;;;;9.06;100.00;99631.00;2616697;36;20039;-56
2022/11/23 07:55:36;;;;;;;12.20;4.15;;;;;;;9.03;100.00;99636.69;2615202;47;19946;-53
2022/11/23 07:58:05;;;;;;;10.68;3.30;;;;;;;9.17;100.00;99638.00;2616482;31;20031;-55
2022/11/23 08:00:34;;;;;;;13.65;3.60;;;;;;;8.98;100.00;99643.53;2616301;36;20413;-57
2022/11/23 08:03:05;;;;;;;9.45;3.28;;;;;;;9.09;100.00;99641.44;2616004;36;20027;-56
2022/11/23 08:05:35;;;;;;;13.60;3.75;;;;;;;9.21;100.00;99644.69;2615965;31;20037;-52
2022/11/23 08:08:04;;;;;;;7.93;3.78;;;;;;;9.34;100.00;99652.34;2615462;36;20037;-53
2022/11/23 08:10:34;;;;;;;7.45;2.25;;;;;;;9.17;100.00;99646.03;2615054;36;20058;-55
2022/11/23 08:13:05;;;;;;;15.13;2.95;;;;;;;9.21;100.00;99650.06;2615733;36;20551;-55
2022/11/23 08:15:33;;;;;;;12.52;2.70;;;;;;;9.41;100.00;99649.88;2615642;36;20037;-55
2022/11/23 08:18:06;;;;;;;8.35;2.20;;;;;;;9.35;100.00;99645.13;2616298;36;20035;-56
2022/11/23 08:20:34;;;;;;;10.07;3.67;;;;;;;9.20;100.00;99651.09;2617335;36;20141;-54
2022/11/23 08:23:03;;;;;;;7.30;2.40;;;;;;;9.39;100.00;99655.41;2616286;31;20167;-52
2022/11/23 08:25:31;;;;;;;7.38;2.90;;;;;;;9.49;100.00;99652.59;2616191;31;20037;-55
2022/11/23 08:28:01;;;;;;;9.57;2.60;;;;;;;9.40;100.00;99654.41;2615408;36;20030;-54
2022/11/23 08:30:32;;;;;;;9.30;2.80;;;;;;;9.51;100.00;99652.44;2614216;36;20038;-54
2022/11/23 08:33:00;;;;;;;11.23;3.08;;;;;;;9.59;100.00;99652.50;2611861;36;20038;-57
2022/11/23 08:35:31;;;;;;;12.48;3.38;;;;;;;9.41;100.00;99656.09;2612474;36;20038;-55
2022/11/23 08:38:00;;;;;;;15.25;3.15;;;;;;;9.39;100.00;99657.25;2613712;36;20023;-53
2022/11/23 08:40:28;;;;;;;4.82;2.20;;;;;;;9.41;100.00;99639.97;2611115;31;20027;-56
2022/11/23 08:42:57;;;;;;;8.75;2.47;;;;;;;9.54;100.00;99646.75;2611644;36;20034;-53
2022/11/23 08:45:25;;;;;;;12.43;4.18;;;;;;;9.57;100.00;99647.28;2612150;36;20065;-52
2022/11/23 08:47:54;;;;;;;9.82;2.83;;;;;;;9.66;100.00;99642.81;2607531;36;20038;-53
2022/11/23 08:50:23;;;;;;;18.10;3.30;;;;;;;9.49;100.00;99646.41;2612330;36;20042;-56
2022/11/23 08:53:00;;;;;;;12.20;3.58;;;;;;;9.51;100.00;99645.25;2609205;36;20030;-53
2022/11/23 08:55:29;;;;;;;5.97;2.55;;;;;;;9.60;100.00;99649.66;2605505;36;20034;-55
2022/11/23 08:57:57;;;;;;;;;;;;;;;9.69;100.00;99642.47;2612324;36;20042;-56
2022/11/23 09:00:26;;;;;;;4.68;1.95;;;;;;;9.56;100.00;99650.97;2612125;36;20486;-54
2022/11/23 09:02:57;;;;;;;13.52;2.85;;;;;;;9.60;100.00;99648.81;2613195;31;20022;-56
2022/11/23 09:05:25;;;;;;;10.57;2.17;;;;;;;9.45;100.00;99654.78;2614268;36;20045;-57
2022/11/23 09:07:53;;;;;;;13.65;2.53;;;;;;;9.35;100.00;99661.22;2612079;36;20034;-54
2022/11/23 09:10:24;;;;;;;15.48;3.35;;;;;;;9.26;100.00;99661.19;2611187;36;20349;-54
2022/11/23 09:12:53;;;;;;;8.98;2.72;;;;;;;9.35;100.00;99656.72;2612503;36;20022;-58
2022/11/23 09:15:21;;;;;;;9.50;1.90;;;;;;;9.55;100.00;99660.03;2613217;36;20062;-55
2022/11/23 09:17:50;;;;;;;11.23;2.00;;;;;;;9.44;100.00;99650.41;2612149;36;20035;-55
2022/11/23 09:20:19;;;;;;;10.48;2.75;;;;;;;9.71;100.00;99655.75;2612611;31;20644;-53
2022/11/23 09:22:52;;;;;;;17.02;3.20;;;;;;;9.66;100.00;99661.59;2613958;36;20038;-57
2022/11/23 09:25:23;;;;;;;10.55;2.40;;;;;;;9.94;100.00;99651.50;2611261;36;20041;-56
2022/11/23 09:27:59;;;;;;;14.38;2.47;;;;;;;9.87;100.00;99652.31;2612523;31;20030;-57
2022/11/23 09:30:28;;;;;;;10.05;2.88;;;;;;;9.88;100.00;99645.91;2611911;36;20121;-53
2022/11/23 09:32:57;;;;;;;8.32;2.85;;;;;;;9.97;100.00;99642.28;2612186;36;20030;-56
2022/11/23 09:35:25;;;;;;;9.25;2.47;;;;;;;9.93;100.00;99654.34;2611683;36;20061;-56
2022/11/23 09:37:57;;;;;;;13.15;2.50;;;;;;;9.83;100.00;99654.47;2612741;31;20037;-55
2022/11/23 09:40:33;;;;;;;7.53;2.50;;;;;;;9.93;100.00;99639.03;2611397;36;20030;-57
2022/11/23 09:43:27;;;;;;;8.73;2.78;;;;;;;10.00;100.00;99633.88;2613014;36;20141;-57
2022/11/23 09:45:58;;;;;;;10.52;3.10;;;;;;;10.14;100.00;99633.25;2614978;36;20030;-58
2022/11/23 09:48:43;;;;;;;8.77;2.47;;;;;;;10.09;100.00;99630.19;2613435;36;20030;-56
2022/11/23 09:51:17;;;;;;;8.48;3.22;;;;;;;9.88;100.00;99619.03;2613994;36;20022;-54
2022/11/23 09:53:49;;;;;;;11.15;2.75;;;;;;;10.21;100.00;99629.91;2614349;36;20060;-56
2022/11/23 09:56:24;;;;;;;11.95;3.15;;;;;;;10.20;100.00;99623.66;2603142;36;20085;-54
2022/11/23 09:58:56;;;;;;;9.57;3.00;;;;;;;10.39;100.00;99622.56;2610051;36;20038;-59
2022/11/23 10:01:25;;;;;;;13.85;3.17;;;;;;;10.16;100.00;99617.78;2614224;36;20022;-55
2022/11/23 10:03:54;;;;;;;16.48;4.07;;;;;;;9.86;100.00;99615.69;2607581;36;20030;-58
2022/11/23 10:06:24;;;;;;;9.93;3.10;;;;;;;9.82;100.00;99607.94;2613516;31;20038;-57
2022/11/23 10:09:03;;;;;;;10.07;3.05;;;;;;;9.74;100.00;99613.28;2614752;36;20035;-55
2022/11/23 10:11:50;;;;;;;;;;;;;;;9.72;100.00;99609.91;2613977;36;20034;-57
2022/11/23 10:14:35;;;;;;;12.95;3.63;;;;;;;9.89;100.00;99596.53;2614074;36;20469;-57
2022/11/23 10:17:11;;;;;;;9.27;2.83;;;;;;;9.84;100.00;99596.19;2614626;36;20030;-57
2022/11/23 10:20:03;;;;;;;8.00;2.83;;;;;;;9.84;100.00;99590.81;2614389;36;20042;-56
2022/11/23 10:22:37;;;;;;;16.92;3.10;;;;;;;9.88;100.00;99584.94;2614649;36;20443;-53
2022/11/23 10:25:21;;;;;;;7.82;2.72;;;;;;;10.32;100.00;99573.09;2614546;36;20057;-54
2022/11/23 10:27:52;;;;;;;9.25;2.63;;;;;;;10.14;100.00;99573.25;2613761;36;20039;-51
2022/11/23 10:30:23;;;;;;;12.30;3.90;;;;;;;10.16;100.00;99565.88;2607426;36;20030;-55
2022/11/23 10:32:57;;;;;;;9.93;2.33;;;;;;;10.18;100.00;99559.31;2611252;36;20038;-51
2022/11/23 10:35:30;;;;;;;8.73;1.92;;;;;;;10.15;100.00;99556.13;2606821;36;20057;-54
2022/11/23 10:38:12;;;;;;;9.48;2.22;;;;;;;10.17;100.00;99548.72;2610709;31;20625;-58
2022/11/23 10:40:44;;;;;;;12.23;2.55;;;;;;;10.23;100.00;99553.47;2613414;31;21066;-58
2022/11/23 10:43:18;;;;;;;9.43;2.20;;;;;;;10.43;100.00;99567.44;2614395;31;20034;-53
2022/11/23 10:45:49;;;;;;;14.65;3.05;;;;;;;10.31;100.00;99556.13;2614850;31;20558;-53
2022/11/23 10:48:36;;;;;;;12.82;2.08;;;;;;;10.43;100.00;99555.84;2614515;31;20038;-56
2022/11/23 10:51:18;;;;;;;13.13;2.40;;;;;;;10.14;100.00;99543.66;2612458;36;20031;-55
2022/11/23 10:53:52;;;;;;;9.05;2.08;;;;;;;10.32;100.00;99557.81;2614052;36;20121;-57
2022/11/23 10:56:21;;;;;;;8.57;2.25;;;;;;;10.25;100.00;99545.22;2613696;36;20108;-56
2022/11/23 10:58:49;;;;;;;9.63;2.83;;;;;;;10.21;100.00;99549.25;2608228;36;20038;-56
2022/11/23 11:01:23;;;;;;;14.85;2.95;;;;;;;10.26;100.00;99549.56;2613796;36;20035;-53
2022/11/23 11:03:53;;;;;;;15.73;3.28;;;;;;;10.32;100.00;99549.75;2605604;36;20031;-56
2022/11/23 11:06:26;;;;;;;16.33;2.60;;;;;;;10.34;100.00;99550.44;2607596;36;20042;-58
2022/11/23 11:08:56;;;;;;;9.82;3.05;;;;;;;10.24;100.00;99548.91;2606155;36;20600;-54
2022/11/23 11:11:27;;;;;;;6.40;2.13;;;;;;;10.24;100.00;99543.53;2603189;36;20054;-57
2022/11/23 11:14:16;;;;;;;10.60;2.28;;;;;;;10.40;100.00;99538.19;2607232;36;20023;-56
2022/11/23 11:16:52;;;;;;;11.67;3.10;;;;;;;10.47;100.00;99552.66;2606512;31;20065;-56
2022/11/23 11:19:29;;;;;;;11.50;2.60;;;;;;;10.42;100.00;99538.84;2608481;36;20483;-56
2022/11/23 11:21:58;;;;;;;8.38;2.55;;;;;;;10.46;100.00;99537.50;2606919;36;20046;-54
2022/11/23 11:24:33;;;;;;;15.52;3.00;;;;;;;10.41;100.00;99552.47;2608972;36;20447;-55
2022/11/23 11:27:04;;;;;;;10.25;2.63;;;;;;;10.38;100.00;99548.28;2606863;36;20114;-54
2022/11/23 11:29:35;;;;;;;9.02;3.13;;;;;;;10.39;100.00;99547.25;2606240;36;20038;-56
2022/11/23 11:32:11;;;;;;;7.90;2.17;;;;;;;10.58;100.00;99545.25;2606547;36;20034;-54
2022/11/23 11:34:47;;;;;;;11.55;2.47;;;;;;;10.90;100.00;99548.94;2608154;36;20064;-54
2022/11/23 11:37:24;;;;;;;10.85;2.30;;;;;;;10.92;100.00;99546.91;2608084;36;21071;-57